createdAt,value
2023-03-06T00:01:11.209Z,95249.66
2023-03-06T00:03:39.138Z,95248.31
2023-03-06T00:06:07.613Z,95250.50
2023-03-06T00:08:35.476Z,95244.19
2023-03-06T00:11:03.305Z,95244.50
2023-03-06T00:13:32.142Z,95250.41
2023-03-06T00:16:02.085Z,95235.28
2023-03-06T00:18:30.112Z,95227.22
2023-03-06T00:20:57.995Z,95229.41
2023-03-06T00:23:25.911Z,95219.66
2023-03-06T00:25:53.853Z,95216.44
2023-03-06T00:28:21.753Z,95214.22
2023-03-06T00:30:49.641Z,95216.94
2023-03-06T00:33:18.937Z,95214.97
2023-03-06T00:35:46.795Z,95212.34
2023-03-06T00:38:15.061Z,95208.47
2023-03-06T00:40:42.932Z,95205.09
2023-03-06T00:43:11.340Z,95203.81
2023-03-06T00:45:39.283Z,95198.34
2023-03-06T00:48:07.225Z,95195.63
2023-03-06T00:50:36.630Z,95184.81
2023-03-06T00:53:04.657Z,95176.25
2023-03-06T00:55:33.523Z,95174.81
2023-03-06T00:58:01.545Z,95179.19
2023-03-06T01:00:29.503Z,95178.75
2023-03-06T01:02:57.505Z,95175.28
2023-03-06T01:05:25.446Z,95162.34
2023-03-06T01:07:54.838Z,95175.34
2023-03-06T01:10:23.027Z,95173.69
2023-03-06T01:12:50.891Z,95179.94
2023-03-06T01:15:18.803Z,95156.25
2023-03-06T01:17:46.674Z,95170.91
2023-03-06T01:20:17.537Z,95166.81
2023-03-06T01:22:45.614Z,95170.69
2023-03-06T01:25:14.884Z,95160.19
2023-03-06T01:27:42.939Z,95162.50
2023-03-06T01:30:11.967Z,95147.63
2023-03-06T01:32:40.165Z,95148.31
2023-03-06T01:35:09.058Z,95138.97
2023-03-06T01:37:37.410Z,95133.59
2023-03-06T01:40:06.845Z,95145.00
2023-03-06T01:42:36.120Z,95126.63
2023-03-06T01:45:07.864Z,95126.63
2023-03-06T01:47:35.813Z,95125.03
2023-03-06T01:50:04.988Z,95131.38
2023-03-06T01:52:40.773Z,95118.16
2023-03-06T01:55:12.135Z,95122.31
2023-03-06T01:57:46.456Z,95115.06
2023-03-06T02:00:16.943Z,95117.88
2023-03-06T02:02:50.863Z,95112.69
2023-03-06T02:05:18.723Z,95105.66
2023-03-06T02:07:48.383Z,95093.63
2023-03-06T02:10:19.022Z,95099.63
2023-03-06T02:12:52.206Z,95091.59
2023-03-06T02:15:24.313Z,95093.16
2023-03-06T02:17:53.142Z,95099.78
2023-03-06T02:20:30.273Z,95091.44
2023-03-06T02:23:07.514Z,95093.81
2023-03-06T02:25:39.979Z,95087.16
2023-03-06T02:28:11.684Z,95083.22
2023-03-06T02:30:40.746Z,95075.53
2023-03-06T02:33:09.420Z,95088.88
2023-03-06T02:35:40.404Z,95078.66
2023-03-06T02:38:12.570Z,95080.69
2023-03-06T02:40:44.898Z,95074.06
2023-03-06T02:43:16.411Z,95070.44
2023-03-06T02:45:48.368Z,95065.47
2023-03-06T02:48:18.416Z,95064.69
2023-03-06T02:50:46.789Z,95059.19
2023-03-06T02:53:16.705Z,95059.03
2023-03-06T02:55:46.440Z,95063.84
2023-03-06T02:58:14.671Z,95057.59
2023-03-06T03:00:42.533Z,95054.50
2023-03-06T03:03:10.420Z,95049.97
2023-03-06T03:05:38.277Z,95044.50
2023-03-06T03:08:06.691Z,95035.84
2023-03-06T03:10:34.736Z,95040.34
2023-03-06T03:13:03.970Z,95041.53
2023-03-06T03:15:31.890Z,95040.03
2023-03-06T03:17:59.737Z,95033.78
2023-03-06T03:20:27.738Z,95027.91
2023-03-06T03:22:57.269Z,95021.16
2023-03-06T03:25:27.104Z,95024.28
2023-03-06T03:27:54.970Z,95029.72
2023-03-06T03:30:24.529Z,95024.44
2023-03-06T03:32:52.387Z,95018.94
2023-03-06T03:35:20.382Z,95021.72
2023-03-06T03:37:48.253Z,95031.47
2023-03-06T03:40:16.150Z,95024.13
2023-03-06T03:42:43.994Z,95029.72
2023-03-06T03:45:12.579Z,95031.22
2023-03-06T03:47:42.302Z,95013.25
2023-03-06T03:50:11.657Z,95012.63
2023-03-06T03:52:39.520Z,95010.34
2023-03-06T03:55:08.631Z,95007.53
2023-03-06T03:57:36.454Z,95009.06
2023-03-06T04:00:08.029Z,95008.31
2023-03-06T04:02:35.863Z,95003.66
2023-03-06T04:05:05.428Z,95004.66
2023-03-06T04:07:33.329Z,94993.25
2023-03-06T04:10:01.202Z,95000.28
2023-03-06T04:12:29.120Z,94988.28
2023-03-06T04:14:56.928Z,94985.72
2023-03-06T04:17:25.694Z,94991.13
2023-03-06T04:19:53.780Z,94978.84
2023-03-06T04:22:23.018Z,94988.53
2023-03-06T04:24:51.086Z,94976.09
2023-03-06T04:27:18.972Z,94983.44
2023-03-06T04:29:46.795Z,94979.69
2023-03-06T04:32:14.858Z,94983.63
2023-03-06T04:34:42.788Z,94978.88
2023-03-06T04:37:20.066Z,94970.78
2023-03-06T04:39:49.336Z,94959.56
2023-03-06T04:42:18.116Z,94969.91
2023-03-06T04:44:46.553Z,94961.44
2023-03-06T04:47:14.707Z,94959.97
2023-03-06T04:49:42.575Z,94958.72
2023-03-06T04:52:10.478Z,94958.25
2023-03-06T04:54:38.855Z,94948.09
2023-03-06T04:57:08.121Z,94946.47
2023-03-06T04:59:38.763Z,94950.84
2023-03-06T05:02:07.044Z,94945.38
2023-03-06T05:04:35.101Z,94951.88
2023-03-06T05:07:02.961Z,94953.47
2023-03-06T05:09:30.843Z,94944.94
2023-03-06T05:11:58.761Z,94943.75
2023-03-06T05:14:30.442Z,94941.28
2023-03-06T05:16:58.341Z,94942.91
2023-03-06T05:19:26.333Z,94933.22
2023-03-06T05:21:54.182Z,94951.63
2023-03-06T05:24:22.115Z,94942.97
2023-03-06T05:26:50.006Z,94940.66
2023-03-06T05:29:17.942Z,94950.84
2023-03-06T05:31:47.465Z,94945.38
2023-03-06T05:34:16.552Z,94940.06
2023-03-06T05:36:45.075Z,94934.59
2023-03-06T05:39:13.140Z,94936.19
2023-03-06T05:41:41.063Z,94939.75
2023-03-06T05:44:10.026Z,94938.59
2023-03-06T05:46:38.412Z,94931.53
2023-03-06T05:49:07.645Z,94943.63
2023-03-06T05:51:35.518Z,94934.59
2023-03-06T05:54:03.570Z,94933.06
2023-03-06T05:56:31.401Z,94937.81
2023-03-06T05:58:59.351Z,94944.28
2023-03-06T06:01:28.486Z,94947.41
2023-03-06T06:03:56.361Z,94938.44
2023-03-06T06:06:25.604Z,94944.94
2023-03-06T06:08:53.493Z,94946.88
2023-03-06T06:11:21.870Z,94946.97
2023-03-06T06:13:50.246Z,94949.38
2023-03-06T06:16:19.125Z,94934.59
2023-03-06T06:18:47.584Z,94930.59
2023-03-06T06:21:16.037Z,94942.59
2023-03-06T06:23:45.314Z,94934.16
2023-03-06T06:26:13.324Z,94945.34
2023-03-06T06:28:41.267Z,94933.47
2023-03-06T06:31:12.141Z,94936.00
2023-03-06T06:33:40.834Z,94945.28
2023-03-06T06:36:16.864Z,94947.28
2023-03-06T06:38:46.173Z,94947.13
2023-03-06T06:44:08.561Z,94956.69
2023-03-06T06:49:26.032Z,94950.38
2023-03-06T06:51:53.889Z,94943.16
2023-03-06T06:54:23.124Z,94949.84
2023-03-06T06:56:51.051Z,94953.41
2023-03-06T06:59:19.026Z,94953.81
2023-03-06T07:01:46.964Z,94948.19
2023-03-06T07:04:15.223Z,94946.41
2023-03-06T07:06:43.488Z,94948.78
2023-03-06T07:09:12.065Z,94951.19
2023-03-06T07:11:41.412Z,94959.19
2023-03-06T07:14:10.019Z,94948.03
2023-03-06T07:16:37.904Z,94955.41
2023-03-06T07:19:05.726Z,94949.59
2023-03-06T07:21:33.878Z,94949.81
2023-03-06T07:24:02.425Z,94957.25
2023-03-06T07:26:32.714Z,94958.88
2023-03-06T07:29:03.780Z,94959.78
2023-03-06T07:31:32.019Z,94955.72
2023-03-06T07:34:00.185Z,94958.16
2023-03-06T07:36:28.346Z,94958.16
2023-03-06T07:38:56.249Z,94958.09
2023-03-06T07:41:24.054Z,94957.78
2023-03-06T07:43:51.922Z,94957.78
2023-03-06T07:46:21.166Z,94965.88
2023-03-06T07:48:49.087Z,94964.69
2023-03-06T07:51:19.893Z,94965.13
2023-03-06T07:53:48.346Z,94961.03
2023-03-06T07:56:16.406Z,94967.56
2023-03-06T07:58:45.821Z,94968.44
2023-03-06T08:01:15.868Z,94965.56
2023-03-06T08:03:45.583Z,94973.31
2023-03-06T08:06:15.735Z,94982.28
2023-03-06T08:08:45.715Z,94975.63
2023-03-06T08:11:16.274Z,94981.16
2023-03-06T08:13:44.657Z,94987.44
2023-03-06T08:16:13.343Z,94978.38
2023-03-06T08:18:41.263Z,94984.22
2023-03-06T08:21:12.872Z,94981.22
2023-03-06T08:23:41.394Z,94987.38
2023-03-06T08:26:13.134Z,94988.22
2023-03-06T08:28:41.112Z,94995.25
2023-03-06T08:31:11.010Z,94990.72
2023-03-06T08:33:39.575Z,94983.06
2023-03-06T08:36:07.872Z,94992.56
2023-03-06T08:38:37.125Z,94998.72
2023-03-06T08:41:05.259Z,94988.69
2023-03-06T08:43:34.852Z,94991.09
2023-03-06T08:46:03.761Z,94986.69
2023-03-06T08:48:31.672Z,94995.56
2023-03-06T08:50:59.614Z,94991.72
2023-03-06T08:53:41.746Z,94993.34
2023-03-06T08:56:18.643Z,94993.88
2023-03-06T08:58:46.941Z,94995.25
2023-03-06T09:01:16.302Z,94996.56
2023-03-06T09:03:44.943Z,94997.19
2023-03-06T09:06:14.030Z,94992.53
2023-03-06T09:08:43.203Z,94994.34
2023-03-06T09:11:11.514Z,94995.22
2023-03-06T09:13:41.211Z,94996.59
2023-03-06T09:16:09.478Z,94994.28
2023-03-06T09:18:38.298Z,94995.03
2023-03-06T09:21:07.839Z,94985.88
2023-03-06T09:23:35.795Z,94996.06
2023-03-06T09:26:04.534Z,94998.47
2023-03-06T09:28:32.538Z,94991.66
2023-03-06T09:31:02.729Z,94994.47
2023-03-06T09:33:31.602Z,94996.84
2023-03-06T09:35:59.669Z,94988.28
2023-03-06T09:38:28.986Z,94994.56
2023-03-06T09:43:38.934Z,94990.09
2023-03-06T09:46:24.390Z,94992.94
2023-03-06T09:49:10.401Z,94991.78
2023-03-06T09:51:52.826Z,94995.38
2023-03-06T09:54:31.941Z,94990.31
2023-03-06T09:56:59.903Z,94983.78
2023-03-06T09:59:29.701Z,94984.19
2023-03-06T10:02:10.418Z,94988.31
2023-03-06T10:04:43.308Z,94980.75
2023-03-06T10:07:19.813Z,94989.16
2023-03-06T10:09:55.025Z,94975.06
2023-03-06T10:12:26.453Z,94983.28
2023-03-06T10:15:03.740Z,94974.72
2023-03-06T10:17:37.669Z,94970.41
2023-03-06T10:20:18.130Z,94968.94
2023-03-06T10:23:11.190Z,94970.66
2023-03-06T10:25:51.252Z,94973.03
2023-03-06T10:28:26.067Z,94964.06
2023-03-06T10:31:03.693Z,94973.44
2023-03-06T10:33:48.016Z,94959.34
2023-03-06T10:36:18.340Z,94962.56
2023-03-06T10:38:48.669Z,94961.81
2023-03-06T10:41:27.557Z,94959.50
2023-03-06T10:44:25.056Z,94957.97
2023-03-06T10:46:54.928Z,94962.72
2023-03-06T10:49:31.444Z,94963.50
2023-03-06T10:52:03.133Z,94958.78
2023-03-06T10:54:33.609Z,94957.91
2023-03-06T10:57:21.017Z,94959.16
2023-03-06T10:59:53.858Z,94958.31
2023-03-06T11:02:31.521Z,94967.00
2023-03-06T11:05:03.458Z,94960.31
2023-03-06T11:07:33.283Z,94969.59
2023-03-06T11:10:08.949Z,94959.56
2023-03-06T11:12:38.581Z,94961.22
2023-03-06T11:15:22.483Z,94966.66
2023-03-06T11:17:54.710Z,94968.06
2023-03-06T11:20:30.295Z,94960.28
2023-03-06T11:23:08.695Z,94954.47
2023-03-06T11:25:42.596Z,94954.84
2023-03-06T11:28:24.582Z,94951.31
2023-03-06T11:30:57.660Z,94945.91
2023-03-06T11:33:35.191Z,94947.03
2023-03-06T11:36:16.127Z,94946.66
2023-03-06T11:38:50.574Z,94944.06
2023-03-06T11:41:32.195Z,94944.81
2023-03-06T11:44:14.311Z,94932.59
2023-03-06T11:46:49.318Z,94941.91
2023-03-06T11:49:29.045Z,94953.16
2023-03-06T11:52:07.928Z,94966.78
2023-03-06T11:54:35.893Z,94952.22
2023-03-06T11:57:08.336Z,94956.81
2023-03-06T12:00:13.008Z,94942.75
2023-03-06T12:03:12.705Z,94941.91
2023-03-06T12:05:48.745Z,94943.44
2023-03-06T12:08:41.063Z,94954.38
2023-03-06T12:11:18.841Z,94945.38
2023-03-06T12:14:15.666Z,94944.72
2023-03-06T12:17:17.019Z,94933.34
2023-03-06T12:20:00.921Z,94939.75
2023-03-06T12:22:57.435Z,94935.41
2023-03-06T12:25:37.610Z,94934.88
2023-03-06T12:28:27.790Z,94933.44
2023-03-06T12:31:20.198Z,94937.31
2023-03-06T12:34:02.688Z,94930.38
2023-03-06T12:37:01.983Z,94933.56
2023-03-06T12:39:44.773Z,94931.19
2023-03-06T12:42:30.845Z,94924.34
2023-03-06T12:45:22.154Z,94921.44
2023-03-06T12:47:56.897Z,94919.16
2023-03-06T12:50:27.779Z,94919.22
2023-03-06T12:52:59.388Z,94925.53
2023-03-06T12:55:28.037Z,94930.94
2023-03-06T12:57:57.286Z,94918.72
2023-03-06T13:01:05.962Z,94921.56
2023-03-06T13:03:55.378Z,94923.53
2023-03-06T13:06:50.809Z,94923.69
2023-03-06T13:09:23.635Z,94922.53
2023-03-06T13:12:27.117Z,94928.78
2023-03-06T13:14:59.216Z,94932.44
2023-03-06T13:17:44.778Z,94924.25
2023-03-06T13:20:38.047Z,94923.13
2023-03-06T13:23:43.533Z,94923.88
2023-03-06T13:26:33.098Z,94926.66
2023-03-06T13:29:01.133Z,94914.91
2023-03-06T13:32:17.301Z,94912.09
2023-03-06T13:34:46.929Z,94917.22
2023-03-06T13:37:49.358Z,94921.81
2023-03-06T13:40:32.368Z,94930.28
2023-03-06T13:43:19.293Z,94936.19
2023-03-06T13:45:49.607Z,94923.94
2023-03-06T13:48:46.228Z,94915.28
2023-03-06T13:51:23.960Z,94912.69
2023-03-06T13:54:21.576Z,94899.75
2023-03-06T13:57:15.142Z,94898.09
2023-03-06T14:00:20.257Z,94908.34
2023-03-06T14:03:05.085Z,94902.78
2023-03-06T14:05:43.570Z,94908.34
2023-03-06T14:08:17.453Z,94914.59
2023-03-06T14:10:47.542Z,94919.16
2023-03-06T14:13:20.719Z,94906.44
2023-03-06T14:15:51.198Z,94900.63
2023-03-06T14:18:26.386Z,94909.31
2023-03-06T14:21:00.559Z,94904.28
2023-03-06T14:23:32.216Z,94896.84
2023-03-06T14:26:15.097Z,94896.25
2023-03-06T14:28:44.765Z,94902.69
2023-03-06T14:31:19.153Z,94900.81
2023-03-06T14:33:53.333Z,94897.28
2023-03-06T14:36:33.457Z,94897.69
2023-03-06T14:39:06.526Z,94897.75
2023-03-06T14:41:36.616Z,94891.53
2023-03-06T14:44:20.753Z,94896.91
2023-03-06T14:46:51.629Z,94889.09
2023-03-06T14:49:22.405Z,94884.78
2023-03-06T14:51:54.001Z,94875.53
2023-03-06T14:54:27.035Z,94882.59
2023-03-06T14:57:01.331Z,94878.34
2023-03-06T14:59:42.741Z,94875.16
2023-03-06T15:02:19.945Z,94887.59
2023-03-06T15:04:52.276Z,94885.22
2023-03-06T15:07:30.351Z,94892.97
2023-03-06T15:10:00.457Z,94883.72
2023-03-06T15:12:38.704Z,94881.41
2023-03-06T15:15:35.310Z,94877.47
2023-03-06T15:18:03.300Z,94877.44
2023-03-06T15:20:52.602Z,94880.53
2023-03-06T15:23:26.243Z,94873.56
2023-03-06T15:25:58.229Z,94872.75
2023-03-06T15:28:34.540Z,94882.16
2023-03-06T15:31:19.358Z,94891.09
2023-03-06T15:34:05.571Z,94891.78
2023-03-06T15:36:34.945Z,94894.09
2023-03-06T15:39:31.741Z,94893.25
2023-03-06T15:42:00.708Z,94888.16
2023-03-06T15:44:31.959Z,94887.31
2023-03-06T15:47:08.432Z,94894.41
2023-03-06T15:49:39.094Z,94893.13
2023-03-06T15:52:07.097Z,94899.06
2023-03-06T15:54:37.306Z,94894.16
2023-03-06T15:57:09.071Z,94890.19
2023-03-06T15:59:44.534Z,94893.78
2023-03-06T16:02:17.449Z,94887.88
2023-03-06T16:04:49.204Z,94895.75
2023-03-06T16:07:20.839Z,94891.88
2023-03-06T16:09:53.889Z,94897.97
2023-03-06T16:12:23.248Z,94891.75
2023-03-06T16:14:51.189Z,94893.31
2023-03-06T16:17:19.298Z,94886.38
2023-03-06T16:19:47.180Z,94882.50
2023-03-06T16:22:15.313Z,94881.81
2023-03-06T16:24:43.469Z,94887.63
2023-03-06T16:27:19.824Z,94880.16
2023-03-06T16:29:47.685Z,94882.44
2023-03-06T16:32:15.629Z,94892.19
2023-03-06T16:34:43.548Z,94897.22
2023-03-06T16:37:14.172Z,94896.38
2023-03-06T16:39:42.142Z,94899.78
2023-03-06T16:42:10.150Z,94892.69
2023-03-06T16:44:39.454Z,94906.66
2023-03-06T16:47:11.027Z,94905.78
2023-03-06T16:49:39.103Z,94909.97
2023-03-06T16:52:08.475Z,94908.50
2023-03-06T16:54:36.336Z,94913.38
2023-03-06T16:57:04.597Z,94908.94
2023-03-06T16:59:32.743Z,94915.59
2023-03-06T17:02:02.332Z,94918.31
2023-03-06T17:04:30.207Z,94909.00
2023-03-06T17:06:58.073Z,94905.81
2023-03-06T17:09:25.945Z,94908.16
2023-03-06T17:11:53.836Z,94911.88
2023-03-06T17:14:21.840Z,94909.16
2023-03-06T17:16:49.753Z,94907.97
2023-03-06T17:19:19.021Z,94921.69
2023-03-06T17:21:46.860Z,94929.78
2023-03-06T17:24:14.732Z,94911.00
2023-03-06T17:26:43.460Z,94927.22
2023-03-06T17:29:12.133Z,94926.59
2023-03-06T17:31:40.029Z,94931.28
2023-03-06T17:34:07.994Z,94934.94
2023-03-06T17:36:37.281Z,94940.47
2023-03-06T17:39:05.916Z,94933.63
2023-03-06T17:41:34.224Z,94935.19
2023-03-06T17:44:02.783Z,94935.09
2023-03-06T17:46:31.799Z,94942.69
2023-03-06T17:48:59.742Z,94940.38
2023-03-06T17:51:27.691Z,94941.69
2023-03-06T17:53:57.475Z,94943.63
2023-03-06T17:56:25.452Z,94947.25
2023-03-06T17:58:53.460Z,94936.34
2023-03-06T18:01:23.966Z,94948.06
2023-03-06T18:03:52.738Z,94947.09
2023-03-06T18:06:22.263Z,94939.59
2023-03-06T18:08:52.885Z,94952.13
2023-03-06T18:11:23.437Z,94943.56
2023-03-06T18:13:52.009Z,94952.47
2023-03-06T18:16:22.998Z,94948.09
2023-03-06T18:18:53.391Z,94948.00
2023-03-06T18:21:21.602Z,94951.81
2023-03-06T18:23:49.475Z,94942.50
2023-03-06T18:26:20.221Z,94951.09
2023-03-06T18:28:53.869Z,94939.13
2023-03-06T18:31:25.087Z,94949.44
2023-03-06T18:33:54.961Z,94958.25
2023-03-06T18:36:24.991Z,94955.06
2023-03-06T18:38:53.344Z,94951.56
2023-03-06T18:41:22.844Z,94952.19
2023-03-06T18:43:55.114Z,94960.06
2023-03-06T18:46:23.651Z,94954.50
2023-03-06T18:48:51.567Z,94952.19
2023-03-06T18:51:20.179Z,94952.06
2023-03-06T18:53:48.265Z,94957.56
2023-03-06T18:56:18.545Z,94958.75
2023-03-06T18:58:46.542Z,94956.03
2023-03-06T19:01:16.154Z,94957.53
2023-03-06T19:03:44.444Z,94966.81
2023-03-06T19:06:14.621Z,94969.19
2023-03-06T19:08:42.918Z,94964.88
2023-03-06T19:11:13.271Z,94966.28
2023-03-06T19:13:42.139Z,94965.69
2023-03-06T19:16:16.908Z,94959.94
2023-03-06T19:18:46.296Z,94962.28
2023-03-06T19:21:16.702Z,94955.69
2023-03-06T19:23:45.618Z,94964.91
2023-03-06T19:26:14.709Z,94961.44
2023-03-06T19:28:43.890Z,94968.16
2023-03-06T19:31:14.769Z,94956.41
2023-03-06T19:33:44.150Z,94959.69
2023-03-06T19:36:15.342Z,94954.22
2023-03-06T19:38:44.032Z,94951.50
2023-03-06T19:41:13.823Z,94951.84
2023-03-06T19:43:42.542Z,94948.41
2023-03-06T19:46:12.914Z,94952.66
2023-03-06T19:48:41.115Z,94947.94
2023-03-06T19:51:09.995Z,94945.56
2023-03-06T19:53:40.554Z,94942.47
2023-03-06T19:56:10.614Z,94942.47
2023-03-06T19:58:40.569Z,94944.41
2023-03-06T20:01:11.017Z,94936.28
2023-03-06T20:03:40.087Z,94927.75
2023-03-06T20:06:13.857Z,94924.31
2023-03-06T20:08:43.917Z,94931.97
2023-03-06T20:11:18.801Z,94935.97
2023-03-06T20:13:48.962Z,94937.88
2023-03-06T20:16:17.713Z,94941.34
2023-03-06T20:18:46.616Z,94948.63
2023-03-06T20:21:15.818Z,94947.09
2023-03-06T20:23:45.199Z,94939.22
2023-03-06T20:26:14.936Z,94933.22
2023-03-06T20:28:43.851Z,94943.19
2023-03-06T20:31:16.520Z,94941.63
2023-03-06T20:33:45.552Z,94939.53
2023-03-06T20:36:15.609Z,94931.03
2023-03-06T20:38:45.165Z,94927.47
2023-03-06T20:41:15.679Z,94937.19
2023-03-06T20:43:44.211Z,94928.72
2023-03-06T20:46:14.072Z,94935.25
2023-03-06T20:48:42.915Z,94941.09
2023-03-06T20:51:17.618Z,94945.38
2023-03-06T20:53:47.602Z,94935.41
2023-03-06T20:56:17.293Z,94939.28
2023-03-06T20:58:45.878Z,94940.41
2023-03-06T21:01:20.020Z,94940.06
2023-03-06T21:03:48.480Z,94934.59
2023-03-06T21:06:16.796Z,94937.72
2023-03-06T21:08:46.850Z,94929.19
2023-03-06T21:11:15.349Z,94921.50
2023-03-06T21:13:44.037Z,94928.94
2023-03-06T21:16:14.809Z,94932.81
2023-03-06T21:18:43.311Z,94932.72
2023-03-06T21:21:14.267Z,94928.38
2023-03-06T21:23:42.256Z,94933.88
2023-03-06T21:26:13.585Z,94934.28
2023-03-06T21:28:41.552Z,94931.56
2023-03-06T21:31:11.669Z,94934.59
2023-03-06T21:33:39.926Z,94928.78
2023-03-06T21:36:08.981Z,94927.16
2023-03-06T21:38:37.288Z,94925.16
2023-03-06T21:41:10.441Z,94926.00
2023-03-06T21:43:39.984Z,94920.13
2023-03-06T21:46:08.042Z,94924.50
2023-03-06T21:48:36.565Z,94917.41
2023-03-06T21:51:06.714Z,94908.19
2023-03-06T21:53:34.676Z,94918.34
2023-03-06T21:56:03.310Z,94916.00
2023-03-06T21:58:32.251Z,94912.09
2023-03-06T22:01:01.592Z,94911.13
2023-03-06T22:03:30.289Z,94905.34
2023-03-06T22:06:07.450Z,94894.31
2023-03-06T22:08:35.345Z,94897.19
2023-03-06T22:11:06.898Z,94896.75
2023-03-06T22:13:34.851Z,94894.75
2023-03-06T22:16:05.307Z,94886.69
2023-03-06T22:18:33.676Z,94889.84
2023-03-06T22:21:03.443Z,94886.38
2023-03-06T22:23:31.547Z,94887.09
2023-03-06T22:26:02.647Z,94886.59
2023-03-06T22:28:32.523Z,94878.41
2023-03-06T22:31:06.505Z,94883.06
2023-03-06T22:33:34.609Z,94878.09
2023-03-06T22:36:06.202Z,94874.81
2023-03-06T22:38:34.883Z,94878.09
2023-03-06T22:41:02.897Z,94882.38
2023-03-06T22:43:31.106Z,94879.25
2023-03-06T22:46:03.107Z,94861.31
2023-03-06T22:48:32.968Z,94862.97
2023-03-06T22:51:05.686Z,94863.19
2023-03-06T22:53:34.296Z,94857.00
2023-03-06T22:56:03.934Z,94861.19
2023-03-06T22:58:36.981Z,94847.25
2023-03-06T23:01:07.136Z,94853.59
2023-03-06T23:03:37.156Z,94846.09
2023-03-06T23:06:08.449Z,94847.34
2023-03-06T23:08:36.427Z,94855.28
2023-03-06T23:11:09.170Z,94854.00
2023-03-06T23:13:37.090Z,94859.72
2023-03-06T23:16:05.454Z,94866.00
2023-03-06T23:18:34.017Z,94870.59
2023-03-06T23:21:07.214Z,94873.31
2023-03-06T23:23:35.233Z,94873.25
2023-03-06T23:26:03.703Z,94868.59
2023-03-06T23:28:31.706Z,94865.88
2023-03-06T23:30:59.587Z,94861.94
2023-03-06T23:33:27.590Z,94861.84
2023-03-06T23:35:55.529Z,94868.06
2023-03-06T23:38:24.823Z,94868.91
2023-03-06T23:40:52.686Z,94872.84
2023-03-06T23:43:22.682Z,94872.09
2023-03-06T23:45:53.925Z,94866.63
2023-03-06T23:48:22.407Z,94859.00
2023-03-06T23:50:50.546Z,94857.00
2023-03-06T23:53:18.740Z,94848.41
2023-03-06T23:55:49.791Z,94861.41
2023-03-06T23:58:19.364Z,94849.72
